Time;durP1;ratioP1;P1;durP2;ratioP2;P2;SDS_P1;SDS_P2;PMS_P1;PMS_P2;Temp;Humidity;BMP_temperature;BMP_pressure;BME280_temperature;BME280_humidity;BME280_pressure;Samples;Min_cycle;Max_cycle;Signal;HPM_P1;HPM_P2
2022/12/08 00:00:38;;;;;;;7.30;2.42;;;1.30;99.90;;;;;;5002525;28;20109;-72
2022/12/08 00:03:04;;;;;;;5.15;2.47;;;1.30;99.90;;;;;;4996911;28;20193;-72
2022/12/08 00:10:58;;;;;;;4.97;2.43;;;1.00;99.90;;;;;;4997156;28;20300;-72
2022/12/08 00:13:23;;;;;;;5.43;2.70;;;1.00;99.90;;;;;;5000539;28;20273;-72
2022/12/08 00:15:49;;;;;;;5.18;2.30;;;1.00;99.90;;;;;;5003047;28;20049;-72
2022/12/08 00:18:15;;;;;;;5.45;2.55;;;1.00;99.90;;;;;;5004997;28;20118;-72
2022/12/08 00:20:40;;;;;;;6.50;2.67;;;1.10;99.90;;;;;;5002037;28;20034;-72
2022/12/08 00:23:06;;;;;;;6.20;2.92;;;1.10;99.90;;;;;;5001956;28;20453;-72
2022/12/08 00:25:35;;;;;;;5.22;2.40;;;1.10;99.90;;;;;;5000814;28;20072;-72
2022/12/08 00:28:01;;;;;;;6.75;2.10;;;1.30;99.90;;;;;;4997696;28;20032;-72
2022/12/08 00:30:26;;;;;;;4.95;2.22;;;1.10;99.90;;;;;;5002156;28;20088;-72
2022/12/08 00:32:52;;;;;;;4.50;2.08;;;0.90;99.90;;;;;;5007532;28;20030;-72
2022/12/08 00:35:17;;;;;;;5.43;2.58;;;0.70;99.90;;;;;;4999367;28;20388;-72
2022/12/08 00:37:43;;;;;;;4.53;2.10;;;0.80;99.90;;;;;;4998586;28;20420;-72
2022/12/08 00:40:09;;;;;;;6.20;2.80;;;1.00;99.90;;;;;;5002497;28;20040;-72
2022/12/08 00:42:35;;;;;;;6.88;3.08;;;1.00;99.90;;;;;;5002522;28;20037;-72
2022/12/08 00:45:00;;;;;;;7.18;3.67;;;0.90;99.90;;;;;;5001945;28;20085;-72
2022/12/08 00:47:26;;;;;;;6.97;3.10;;;0.90;99.90;;;;;;5004743;28;20029;-72
2022/12/08 00:49:51;;;;;;;5.90;2.80;;;0.80;99.90;;;;;;5003980;28;20503;-72
2022/12/08 00:52:17;;;;;;;6.38;2.33;;;0.80;99.90;;;;;;5001891;28;20477;-72
2022/12/08 00:54:43;;;;;;;5.38;2.70;;;1.00;99.90;;;;;;5003517;28;20036;-72
2022/12/08 00:57:09;;;;;;;6.55;2.88;;;1.20;99.90;;;;;;5002116;28;20092;-72
2022/12/08 00:59:34;;;;;;;5.60;2.63;;;1.20;99.90;;;;;;5004628;28;20664;-72
2022/12/08 01:02:00;;;;;;;6.25;2.60;;;1.20;99.90;;;;;;5002460;28;20030;-72
2022/12/08 01:04:26;;;;;;;6.72;2.60;;;1.10;99.90;;;;;;4997556;28;20386;-73
2022/12/08 01:06:51;;;;;;;5.45;2.45;;;1.00;99.90;;;;;;5005396;28;20492;-72
2022/12/08 01:09:18;;;;;;;5.00;2.75;;;1.00;99.90;;;;;;4999577;28;20106;-73
2022/12/08 01:11:44;;;;;;;6.78;2.58;;;1.00;99.90;;;;;;5000185;28;20077;-72
2022/12/08 01:14:10;;;;;;;6.15;2.80;;;1.10;99.90;;;;;;5004182;28;20496;-72
2022/12/08 01:16:36;;;;;;;6.47;2.78;;;1.20;99.90;;;;;;5000685;28;20030;-72
2022/12/08 01:19:02;;;;;;;5.50;2.58;;;1.30;99.90;;;;;;5003723;28;20460;-72
2022/12/08 01:21:28;;;;;;;6.78;3.13;;;1.20;99.90;;;;;;5002461;28;20035;-72
2022/12/08 01:23:54;;;;;;;5.65;2.60;;;1.20;99.90;;;;;;4998159;28;20059;-73
2022/12/08 01:26:20;;;;;;;5.07;2.47;;;1.20;99.90;;;;;;5002697;28;20033;-72
2022/12/08 01:28:46;;;;;;;7.60;3.08;;;1.10;99.90;;;;;;4994904;28;20096;-72
2022/12/08 01:31:15;;;;;;;6.28;2.60;;;0.90;99.90;;;;;;4993530;28;20122;-73
2022/12/08 01:33:42;;;;;;;5.18;2.47;;;0.90;99.90;;;;;;5002671;28;20396;-73
2022/12/08 01:36:17;;;;;;;5.53;2.92;;;0.80;99.90;;;;;;4998315;28;20471;-72
2022/12/08 01:38:43;;;;;;;8.27;3.30;;;0.70;99.90;;;;;;5004637;28;20030;-73
2022/12/08 01:41:12;;;;;;;5.90;3.00;;;0.60;99.90;;;;;;4999315;28;20029;-73
2022/12/08 01:43:56;;;;;;;5.03;2.95;;;0.60;99.90;;;;;;5001885;28;20492;-73
2022/12/08 01:46:23;;;;;;;6.85;2.90;;;0.70;99.90;;;;;;4994201;28;20034;-73
2022/12/08 01:48:53;;;;;;;7.45;2.88;;;1.00;99.90;;;;;;5003142;28;20037;-73
2022/12/08 01:51:19;;;;;;;5.10;2.65;;;1.00;99.90;;;;;;5004491;28;20042;-72
2022/12/08 01:53:46;;;;;;;6.32;2.75;;;1.10;99.90;;;;;;5000927;28;20034;-72
2022/12/08 01:56:17;;;;;;;5.65;2.22;;;1.10;99.90;;;;;;5001641;28;20396;-72
2022/12/08 01:58:48;;;;;;;5.63;2.92;;;1.00;99.90;;;;;;5000989;28;20053;-72
2022/12/08 02:01:14;;;;;;;8.00;2.85;;;0.80;99.90;;;;;;4999922;28;20042;-72
2022/12/08 02:03:49;;;;;;;6.75;3.10;;;0.70;99.90;;;;;;5001460;28;20017;-72
2022/12/08 02:06:16;;;;;;;6.22;2.72;;;0.60;99.90;;;;;;5000116;28;20354;-72
2022/12/08 02:08:43;;;;;;;7.25;2.53;;;0.60;99.90;;;;;;4999051;28;20064;-72
2022/12/08 02:11:10;;;;;;;4.20;2.42;;;0.60;99.90;;;;;;4999488;28;20509;-73
2022/12/08 02:13:36;;;;;;;7.63;3.47;;;0.60;99.90;;;;;;5003487;28;20053;-73
2022/12/08 02:16:40;;;;;;;7.15;3.15;;;0.70;99.90;;;;;;5004149;28;20056;-72
2022/12/08 02:19:37;;;;;;;5.38;2.63;;;0.70;99.90;;;;;;4998401;28;20026;-72
2022/12/08 02:22:06;;;;;;;5.72;2.90;;;0.70;99.90;;;;;;4999920;28;20566;-72
2022/12/08 02:24:43;;;;;;;7.55;3.03;;;0.90;99.90;;;;;;4996243;28;20384;-72
2022/12/08 02:27:48;;;;;;;5.65;3.25;;;1.00;99.90;;;;;;5004478;28;20041;-73
2022/12/08 02:30:16;;;;;;;6.20;2.53;;;1.00;99.90;;;;;;4968009;28;20382;-73
2022/12/08 02:33:12;;;;;;;6.70;2.50;;;0.80;99.90;;;;;;4968379;28;20043;-73
2022/12/08 02:35:53;;;;;;;8.93;2.72;;;0.70;99.90;;;;;;4989209;28;20056;-73
2022/12/08 02:38:27;;;;;;;8.25;4.07;;;0.80;99.90;;;;;;5002418;28;20030;-73
2022/12/08 02:41:12;;;;;;;;;;;0.70;99.90;;;;;;5002918;28;20084;-72
2022/12/08 02:43:56;;;;;;;4.57;2.42;;;0.80;99.90;;;;;;5003687;28;19909;-73
2022/12/08 02:46:34;;;;;;;6.85;3.08;;;0.70;99.90;;;;;;5006237;28;20104;-72
2022/12/08 02:49:02;;;;;;;6.10;3.35;;;0.70;99.90;;;;;;5006693;28;20022;-73
2022/12/08 02:51:27;;;;;;;6.00;2.80;;;0.80;99.90;;;;;;5002383;28;20072;-73
2022/12/08 02:53:54;;;;;;;5.78;3.05;;;0.80;99.90;;;;;;5008130;28;20445;-73
2022/12/08 02:56:31;;;;;;;5.78;3.00;;;0.80;99.90;;;;;;5006659;28;20504;-72
2022/12/08 02:59:06;;;;;;;5.55;2.95;;;0.80;99.90;;;;;;5002763;28;20544;-73
2022/12/08 03:01:54;;;;;;;6.22;3.08;;;0.80;99.90;;;;;;5004479;28;20472;-73
2022/12/08 03:04:34;;;;;;;6.60;3.30;;;0.80;99.90;;;;;;5004296;28;20030;-73
2022/12/08 03:07:41;;;;;;;5.95;2.80;;;0.80;99.90;;;;;;5003447;28;20018;-73
2022/12/08 03:10:26;;;;;;;8.68;3.42;;;0.80;99.90;;;;;;5000113;28;20116;-73
2022/12/08 03:13:02;;;;;;;6.80;3.08;;;0.60;99.90;;;;;;5000582;28;20396;-73
2022/12/08 03:15:29;;;;;;;6.45;3.00;;;0.50;99.90;;;;;;5006160;28;20385;-72
2022/12/08 03:17:57;;;;;;;4.57;2.75;;;0.70;99.90;;;;;;5001573;28;20447;-73
2022/12/08 03:20:24;;;;;;;7.38;3.05;;;0.60;99.90;;;;;;5005147;28;20072;-73
2022/12/08 03:22:54;;;;;;;5.93;3.00;;;0.60;99.90;;;;;;5001719;28;23111;-73
2022/12/08 03:25:22;;;;;;;5.80;2.35;;;0.80;99.90;;;;;;5003284;28;20428;-72
2022/12/08 03:27:49;;;;;;;6.70;3.10;;;0.90;99.90;;;;;;5003471;28;20065;-73
2022/12/08 03:30:15;;;;;;;6.45;2.47;;;1.00;99.90;;;;;;5003423;28;20618;-73
2022/12/08 03:33:00;;;;;;;6.15;4.15;;;0.90;99.90;;;;;;5006045;28;20041;-72
2022/12/08 03:35:30;;;;;;;7.97;3.40;;;0.80;99.90;;;;;;5004171;28;20121;-73
2022/12/08 03:38:11;;;;;;;5.47;3.05;;;0.60;99.90;;;;;;5001082;28;20366;-72
2022/12/08 03:40:37;;;;;;;6.07;3.90;;;0.70;99.90;;;;;;5002585;28;20113;-73
2022/12/08 03:43:03;;;;;;;8.27;4.10;;;0.70;99.90;;;;;;5003992;28;20038;-73
2022/12/08 03:45:28;;;;;;;7.55;3.40;;;0.60;99.90;;;;;;5007097;28;20087;-73
2022/12/08 03:47:54;;;;;;;5.38;2.75;;;0.70;99.90;;;;;;5007472;28;20065;-73
2022/12/08 03:50:20;;;;;;;4.20;2.40;;;0.50;99.90;;;;;;5004837;28;20037;-73
2022/12/08 03:52:46;;;;;;;7.65;2.97;;;0.60;99.90;;;;;;5002169;28;20041;-73
2022/12/08 03:55:11;;;;;;;4.03;2.40;;;0.60;99.90;;;;;;5002579;28;20469;-73
2022/12/08 03:57:37;;;;;;;5.78;2.60;;;0.70;99.90;;;;;;5000597;28;20168;-73
2022/12/08 04:00:08;;;;;;;6.82;2.53;;;0.60;99.90;;;;;;5003019;28;20366;-73
2022/12/08 04:02:33;;;;;;;4.40;2.30;;;0.60;99.90;;;;;;5002101;28;20119;-73
2022/12/08 04:04:59;;;;;;;6.20;3.03;;;0.50;99.90;;;;;;4995515;28;20061;-73
2022/12/08 04:07:25;;;;;;;5.75;2.55;;;0.30;99.90;;;;;;4998747;28;20045;-73
2022/12/08 04:09:50;;;;;;;7.07;2.97;;;0.30;99.90;;;;;;5020217;28;20038;-73
2022/12/08 04:12:16;;;;;;;6.18;3.17;;;0.30;99.90;;;;;;4998703;28;20038;-72
2022/12/08 04:14:42;;;;;;;5.32;2.85;;;0.40;99.90;;;;;;5001124;28;20062;-73
2022/12/08 04:17:08;;;;;;;5.57;2.85;;;0.30;99.90;;;;;;4997757;28;20033;-73
2022/12/08 04:19:33;;;;;;;5.72;2.38;;;0.20;99.90;;;;;;4974917;28;20037;-73
2022/12/08 04:21:59;;;;;;;5.35;2.83;;;0.40;99.90;;;;;;4980350;28;20038;-73
2022/12/08 04:24:24;;;;;;;6.70;3.40;;;0.50;99.90;;;;;;4980256;28;20030;-73
2022/12/08 04:26:50;;;;;;;9.68;3.00;;;0.50;99.90;;;;;;4991989;28;20025;-72
2022/12/08 04:29:16;;;;;;;8.07;3.10;;;0.50;99.90;;;;;;4993697;28;22023;-72
2022/12/08 04:31:41;;;;;;;7.50;3.83;;;0.60;99.90;;;;;;4990745;28;20045;-72
2022/12/08 04:34:08;;;;;;;6.95;3.40;;;0.40;99.90;;;;;;4992422;28;20112;-72
2022/12/08 04:36:34;;;;;;;6.82;2.78;;;0.30;99.90;;;;;;4980690;28;20041;-72
2022/12/08 04:38:59;;;;;;;4.40;2.45;;;0.20;99.90;;;;;;4981517;28;20053;-72
2022/12/08 04:41:25;;;;;;;4.90;2.78;;;0.20;99.90;;;;;;4979656;28;20030;-72
2022/12/08 04:43:51;;;;;;;6.55;2.70;;;0.20;99.90;;;;;;4991831;28;20096;-73
2022/12/08 04:46:16;;;;;;;4.55;2.20;;;0.10;99.90;;;;;;4989285;28;20038;-72
2022/12/08 04:48:42;;;;;;;5.63;2.70;;;0.40;99.90;;;;;;4985155;28;20042;-72
2022/12/08 04:51:15;;;;;;;6.13;2.72;;;0.50;99.90;;;;;;4993914;28;20034;-72
2022/12/08 04:53:41;;;;;;;5.47;2.65;;;0.60;99.90;;;;;;4994725;28;20481;-72
2022/12/08 04:56:19;;;;;;;5.50;2.50;;;0.50;99.90;;;;;;4984100;28;20400;-72
2022/12/08 04:58:45;;;;;;;5.00;2.97;;;0.50;99.90;;;;;;4992365;28;20029;-73
2022/12/08 05:01:11;;;;;;;8.10;3.90;;;0.40;99.90;;;;;;4983227;28;20033;-72
2022/12/08 05:03:37;;;;;;;5.15;2.25;;;0.20;99.90;;;;;;4979263;28;20806;-72
2022/12/08 05:06:03;;;;;;;6.55;2.28;;;0.40;99.90;;;;;;4992036;28;20083;-73
2022/12/08 05:08:30;;;;;;;5.97;2.40;;;0.50;99.90;;;;;;4994621;28;20090;-72
2022/12/08 05:11:06;;;;;;;4.72;2.40;;;0.60;99.90;;;;;;4985140;28;20040;-72
2022/12/08 05:13:32;;;;;;;4.47;2.42;;;0.60;99.90;;;;;;4982985;28;20044;-73
2022/12/08 05:16:03;;;;;;;6.53;2.97;;;0.60;99.90;;;;;;4989772;28;20025;-72
2022/12/08 05:18:28;;;;;;;7.45;3.75;;;0.60;99.90;;;;;;4994346;28;20070;-73
2022/12/08 05:20:54;;;;;;;6.38;2.40;;;0.80;99.90;;;;;;4995100;28;20088;-73
2022/12/08 05:23:20;;;;;;;8.00;2.80;;;0.90;99.90;;;;;;4986145;28;20064;-72
2022/12/08 05:25:45;;;;;;;7.93;4.25;;;0.60;99.90;;;;;;4987195;28;20408;-72
2022/12/08 05:28:11;;;;;;;6.85;3.35;;;0.30;99.90;;;;;;4987711;28;20125;-72
2022/12/08 05:30:37;;;;;;;5.10;2.50;;;0.30;99.90;;;;;;4983332;28;20520;-72
2022/12/08 05:33:02;;;;;;;5.80;2.58;;;0.40;99.90;;;;;;4986455;28;20038;-72
2022/12/08 05:35:28;;;;;;;6.32;2.53;;;0.60;99.90;;;;;;4984163;28;20541;-72
2022/12/08 05:37:53;;;;;;;5.72;2.53;;;0.80;99.90;;;;;;4992893;28;20396;-73
2022/12/08 05:40:19;;;;;;;5.57;2.30;;;0.80;99.90;;;;;;4989716;28;20484;-72
2022/12/08 05:42:45;;;;;;;7.70;2.80;;;0.70;99.90;;;;;;4987583;28;20092;-72
2022/12/08 05:45:10;;;;;;;5.30;2.40;;;0.60;99.90;;;;;;4997491;28;20030;-72
2022/12/08 05:47:36;;;;;;;5.47;2.42;;;0.50;99.90;;;;;;4988221;28;20030;-72
2022/12/08 05:50:02;;;;;;;3.83;1.83;;;0.60;99.90;;;;;;4985017;28;20183;-72
2022/12/08 05:52:28;;;;;;;5.10;2.42;;;0.40;99.90;;;;;;4996508;28;20034;-73
2022/12/08 05:54:53;;;;;;;6.03;2.47;;;0.30;99.90;;;;;;4987248;28;20096;-72
2022/12/08 05:57:19;;;;;;;6.93;2.92;;;0.30;99.90;;;;;;4980477;28;20489;-72
2022/12/08 05:59:45;;;;;;;4.93;2.35;;;0.30;99.90;;;;;;4980547;28;20456;-72
2022/12/08 06:02:10;;;;;;;3.60;1.80;;;0.30;99.90;;;;;;4978651;28;20181;-72
2022/12/08 06:04:36;;;;;;;6.05;2.13;;;0.30;99.90;;;;;;4985735;28;20044;-72
2022/12/08 06:07:02;;;;;;;5.88;2.50;;;0.30;99.90;;;;;;4988497;28;20044;-72
2022/12/08 06:09:27;;;;;;;5.85;2.65;;;0.30;99.90;;;;;;4988735;28;20149;-73
2022/12/08 06:11:53;;;;;;;7.07;2.30;;;0.40;99.90;;;;;;4987742;28;20072;-72
2022/12/08 06:14:18;;;;;;;5.82;2.40;;;0.30;99.90;;;;;;4991712;28;20058;-72
2022/12/08 06:16:44;;;;;;;5.32;2.70;;;0.50;99.90;;;;;;4988607;28;20181;-72
2022/12/08 06:19:10;;;;;;;4.78;2.35;;;0.40;99.90;;;;;;4994664;28;20108;-72
2022/12/08 06:21:35;;;;;;;5.32;2.40;;;0.50;99.90;;;;;;4994508;28;20048;-72
2022/12/08 06:24:01;;;;;;;15.82;3.35;;;0.60;99.90;;;;;;4995362;28;20049;-72
2022/12/08 06:26:27;;;;;;;7.70;3.53;;;0.70;99.90;;;;;;4991626;28;20167;-72
2022/12/08 06:28:53;;;;;;;4.55;2.45;;;0.50;99.90;;;;;;4992587;28;20104;-73
2022/12/08 06:31:21;;;;;;;6.07;2.28;;;0.40;99.90;;;;;;4991186;28;20141;-73
2022/12/08 06:33:48;;;;;;;4.50;1.90;;;0.30;99.90;;;;;;4996046;28;20038;-72
2022/12/08 06:36:15;;;;;;;6.53;2.33;;;0.20;99.90;;;;;;4987571;28;20049;-72
2022/12/08 06:38:41;;;;;;;5.22;2.58;;;0.20;99.90;;;;;;4985525;28;20034;-72
2022/12/08 06:41:07;;;;;;;8.48;3.53;;;0.20;99.90;;;;;;4992085;28;20025;-72
2022/12/08 06:43:33;;;;;;;5.65;2.40;;;0.30;99.90;;;;;;4993645;28;20634;-73
2022/12/08 06:46:00;;;;;;;4.88;2.50;;;0.40;99.90;;;;;;4994539;28;20034;-72
2022/12/08 06:48:26;;;;;;;4.95;2.92;;;0.40;99.90;;;;;;4987742;28;20045;-72
2022/12/08 06:50:51;;;;;;;5.75;2.97;;;0.30;99.90;;;;;;4992022;28;20388;-72
2022/12/08 06:53:17;;;;;;;5.82;3.50;;;0.40;99.90;;;;;;4990144;28;20034;-72
2022/12/08 06:55:44;;;;;;;8.15;3.50;;;0.30;99.90;;;;;;4992328;28;20087;-72
2022/12/08 06:58:11;;;;;;;5.75;2.67;;;0.30;99.90;;;;;;4987580;28;20030;-72
2022/12/08 07:00:37;;;;;;;5.28;2.42;;;0.10;99.90;;;;;;4996180;28;20030;-72
2022/12/08 07:03:02;;;;;;;5.50;2.47;;;0.20;99.90;;;;;;5005656;28;20029;-73
2022/12/08 07:05:28;;;;;;;4.72;2.15;;;0.30;99.90;;;;;;4984470;28;20046;-71
2022/12/08 07:07:54;;;;;;;5.45;2.53;;;0.50;99.90;;;;;;4995003;28;20033;-73
2022/12/08 07:10:19;;;;;;;4.40;2.10;;;0.40;99.90;;;;;;4991985;28;20026;-72
2022/12/08 07:12:45;;;;;;;4.75;2.35;;;0.30;99.90;;;;;;4988962;28;20038;-70
2022/12/08 07:15:11;;;;;;;4.20;2.30;;;0.10;99.90;;;;;;4988379;28;20026;-71
2022/12/08 07:17:36;;;;;;;5.85;2.05;;;0.30;99.90;;;;;;4998552;28;20066;-71
2022/12/08 07:20:02;;;;;;;5.32;2.33;;;0.40;99.90;;;;;;4990550;28;20040;-71
2022/12/08 07:22:28;;;;;;;6.00;2.40;;;0.60;99.90;;;;;;4988996;28;20150;-71
2022/12/08 07:24:53;;;;;;;3.92;2.03;;;0.50;99.90;;;;;;4995879;28;20515;-71
2022/12/08 07:27:19;;;;;;;4.50;1.83;;;0.50;99.90;;;;;;4984065;28;20609;-71
2022/12/08 07:29:44;;;;;;;4.63;2.10;;;0.50;99.90;;;;;;4988520;28;20026;-72
2022/12/08 07:32:10;;;;;;;5.82;2.63;;;0.50;99.90;;;;;;4986572;28;20059;-72
2022/12/08 07:34:36;;;;;;;4.30;1.98;;;0.50;99.90;;;;;;4993783;28;20076;-72
2022/12/08 07:37:01;;;;;;;4.25;2.08;;;0.60;99.90;;;;;;4994623;28;20026;-72
2022/12/08 07:39:27;;;;;;;4.55;2.22;;;0.60;99.90;;;;;;4981286;28;20049;-71
2022/12/08 07:41:53;;;;;;;5.70;2.70;;;0.70;99.90;;;;;;4991728;28;20113;-71
2022/12/08 07:44:18;;;;;;;6.25;3.40;;;0.60;99.90;;;;;;4990397;28;20080;-71
2022/12/08 07:46:44;;;;;;;4.82;2.80;;;0.40;99.90;;;;;;4983391;28;20038;-71
2022/12/08 07:49:10;;;;;;;8.52;4.55;;;0.30;99.90;;;;;;4992216;28;20084;-72
2022/12/08 07:51:36;;;;;;;5.88;2.53;;;0.30;99.90;;;;;;4982351;28;20046;-71
2022/12/08 07:54:01;;;;;;;3.78;1.80;;;0.20;99.90;;;;;;4987269;28;20042;-73
2022/12/08 07:56:27;;;;;;;4.10;2.25;;;0.20;99.90;;;;;;4998494;28;20044;-71
2022/12/08 07:58:53;;;;;;;5.63;2.38;;;0.40;99.90;;;;;;5015751;28;20031;-72
2022/12/08 08:01:25;;;;;;;4.88;2.25;;;0.60;99.90;;;;;;4988681;28;20026;-72
2022/12/08 08:03:52;;;;;;;4.50;2.30;;;0.70;99.90;;;;;;4989073;28;20088;-72
2022/12/08 08:06:17;;;;;;;3.92;2.15;;;0.70;99.90;;;;;;4980234;28;20113;-73
2022/12/08 08:08:43;;;;;;;7.75;3.10;;;0.70;99.90;;;;;;4983304;28;20168;-72
2022/12/08 08:11:09;;;;;;;6.13;2.47;;;0.80;99.90;;;;;;4981573;28;20588;-72
2022/12/08 08:13:36;;;;;;;6.82;2.90;;;0.70;99.90;;;;;;4981113;28;20484;-72
2022/12/08 08:16:06;;;;;;;3.55;1.67;;;0.70;99.90;;;;;;4989855;28;20065;-74
2022/12/08 08:18:33;;;;;;;3.97;2.13;;;0.80;99.90;;;;;;4982824;28;20034;-73
2022/12/08 08:20:59;;;;;;;6.82;2.97;;;1.00;99.90;;;;;;5018026;28;20029;-74
2022/12/08 08:23:25;;;;;;;5.78;3.20;;;0.90;99.90;;;;;;4992384;28;20065;-73
2022/12/08 08:25:51;;;;;;;11.70;4.32;;;0.90;99.90;;;;;;4991357;28;20097;-73
2022/12/08 08:28:16;;;;;;;7.82;4.53;;;0.40;99.90;;;;;;4991541;28;20456;-73
2022/12/08 08:30:42;;;;;;;8.05;3.95;;;0.40;99.90;;;;;;4988316;28;20551;-73
2022/12/08 08:33:08;;;;;;;6.78;4.05;;;0.30;99.90;;;;;;4984330;28;20053;-73
2022/12/08 08:35:33;;;;;;;7.25;2.88;;;0.30;99.90;;;;;;4985781;28;20038;-73
2022/12/08 08:38:00;;;;;;;6.65;3.42;;;0.30;99.90;;;;;;4993154;28;20030;-73
2022/12/08 08:40:25;;;;;;;4.57;2.15;;;0.50;99.90;;;;;;4979248;28;20027;-73
2022/12/08 08:42:51;;;;;;;5.57;2.33;;;0.70;99.90;;;;;;4983810;28;20575;-73
2022/12/08 08:45:17;;;;;;;9.45;3.08;;;0.80;99.90;;;;;;4986978;28;20117;-73
2022/12/08 08:47:43;;;;;;;3.95;2.10;;;1.00;99.90;;;;;;4987890;28;20037;-73
2022/12/08 08:50:08;;;;;;;4.78;2.40;;;1.00;99.90;;;;;;4990421;28;20121;-73
2022/12/08 08:52:34;;;;;;;5.97;2.47;;;1.10;99.90;;;;;;4986714;28;20065;-74
2022/12/08 08:55:00;;;;;;;5.55;2.80;;;1.10;99.90;;;;;;4981046;28;20409;-73
2022/12/08 08:57:26;;;;;;;4.07;2.03;;;1.10;99.90;;;;;;4989347;28;20411;-73
2022/12/08 08:59:52;;;;;;;6.57;2.42;;;1.10;99.90;;;;;;4984533;28;20054;-72
2022/12/08 09:02:18;;;;;;;5.05;2.45;;;1.20;99.90;;;;;;4986774;28;20030;-70
2022/12/08 09:04:44;;;;;;;4.97;2.15;;;1.20;99.90;;;;;;4986951;28;20038;-71
2022/12/08 09:07:11;;;;;;;6.43;2.17;;;1.20;99.90;;;;;;4984599;28;20037;-72
2022/12/08 09:09:37;;;;;;;4.65;2.13;;;1.20;99.90;;;;;;4985649;28;20030;-71
2022/12/08 09:12:03;;;;;;;3.95;2.03;;;1.20;99.90;;;;;;4983980;28;20038;-71
2022/12/08 09:14:29;;;;;;;5.30;2.17;;;1.20;99.90;;;;;;4987399;28;20038;-70
2022/12/08 09:16:55;;;;;;;6.20;2.30;;;1.10;99.90;;;;;;4984779;28;20195;-71
2022/12/08 09:19:21;;;;;;;5.25;2.78;;;1.10;99.90;;;;;;4983255;28;20077;-70
2022/12/08 09:21:46;;;;;;;4.70;1.98;;;1.00;99.90;;;;;;4992510;28;20037;-72
2022/12/08 09:24:15;;;;;;;4.65;2.22;;;1.10;99.90;;;;;;4989913;28;20046;-71
2022/12/08 09:26:42;;;;;;;6.50;3.20;;;1.10;99.90;;;;;;4990308;28;20048;-70
2022/12/08 09:29:09;;;;;;;4.90;2.88;;;1.10;99.90;;;;;;4989990;28;20030;-71
2022/12/08 09:31:34;;;;;;;5.40;2.45;;;1.00;99.90;;;;;;4989131;28;20038;-71
2022/12/08 09:34:00;;;;;;;4.50;2.30;;;0.80;99.90;;;;;;4986917;28;20513;-71
2022/12/08 09:36:26;;;;;;;4.80;2.38;;;0.80;99.90;;;;;;4992406;28;20675;-72
2022/12/08 09:38:55;;;;;;;5.13;2.33;;;0.70;99.90;;;;;;4989640;28;20046;-71
2022/12/08 09:41:50;;;;;;;5.13;1.98;;;0.90;99.90;;;;;;4997437;28;20188;-72
2022/12/08 09:44:38;;;;;;;4.82;2.33;;;1.10;99.90;;;;;;4980292;28;20034;-72
2022/12/08 09:47:14;;;;;;;6.55;2.47;;;0.90;99.90;;;;;;4982947;28;20088;-71
2022/12/08 09:49:45;;;;;;;4.90;2.30;;;0.90;99.90;;;;;;4987849;28;20030;-71
2022/12/08 09:52:36;;;;;;;4.93;2.13;;;1.10;99.90;;;;;;4986014;28;20088;-71
2022/12/08 09:55:10;;;;;;;4.03;1.80;;;1.00;99.90;;;;;;4980381;28;20031;-70
2022/12/08 09:57:36;;;;;;;5.03;2.28;;;1.00;99.90;;;;;;4987328;28;20131;-70
2022/12/08 10:00:06;;;;;;;4.95;1.90;;;1.00;99.90;;;;;;4990713;28;20112;-70
2022/12/08 10:02:33;;;;;;;4.82;1.77;;;1.10;99.90;;;;;;4989184;28;20041;-71
2022/12/08 10:04:58;;;;;;;4.20;2.08;;;1.20;99.90;;;;;;4982387;28;20212;-70
2022/12/08 10:07:41;;;;;;;7.65;2.45;;;1.30;99.90;;;;;;4980404;28;20105;-70
2022/12/08 10:10:16;;;;;;;6.45;2.70;;;1.30;99.90;;;;;;4979761;28;20092;-70
2022/12/08 10:12:45;;;;;;;9.10;2.65;;;1.20;99.90;;;;;;4989070;28;20344;-71
2022/12/08 10:15:57;;;;;;;8.73;3.42;;;1.30;99.90;;;;;;4990169;28;20434;-71
2022/12/08 10:18:27;;;;;;;8.23;2.80;;;1.40;99.90;;;;;;4966895;28;20042;-70
2022/12/08 10:21:09;;;;;;;7.70;2.10;;;1.50;99.90;;;;;;4957904;28;22141;-72
2022/12/08 10:23:37;;;;;;;4.97;2.20;;;1.60;99.90;;;;;;4977721;28;20639;-71
2022/12/08 10:26:06;;;;;;;3.35;1.83;;;1.60;99.90;;;;;;4995656;28;20060;-71
2022/12/08 10:28:33;;;;;;;6.13;2.72;;;1.40;99.90;;;;;;4985644;28;20072;-71
2022/12/08 10:30:59;;;;;;;6.22;2.33;;;1.60;99.90;;;;;;4985401;28;20113;-71
2022/12/08 10:33:25;;;;;;;5.75;2.47;;;1.60;99.90;;;;;;4991879;28;20401;-70
2022/12/08 10:35:57;;;;;;;5.80;2.25;;;1.60;99.90;;;;;;4988924;28;20049;-70
2022/12/08 10:38:29;;;;;;;5.47;2.38;;;1.60;99.90;;;;;;4992312;28;22000;-70
2022/12/08 10:41:09;;;;;;;6.28;2.42;;;1.40;99.90;;;;;;4987530;28;20038;-70
2022/12/08 10:43:42;;;;;;;3.85;1.80;;;1.50;99.90;;;;;;4999560;28;20030;-70
2022/12/08 10:46:18;;;;;;;4.65;2.00;;;1.60;99.90;;;;;;5000281;28;20113;-70
2022/12/08 10:49:07;;;;;;;6.97;3.45;;;1.80;99.90;;;;;;5000767;28;20025;-70
2022/12/08 10:51:32;;;;;;;4.53;2.58;;;2.10;99.90;;;;;;4994927;28;20064;-71
2022/12/08 10:53:58;;;;;;;8.52;3.25;;;2.30;99.90;;;;;;5002339;28;20059;-71
2022/12/08 10:56:28;;;;;;;8.43;3.22;;;2.40;99.90;;;;;;4987898;28;20042;-71
2022/12/08 10:59:18;;;;;;;5.70;2.90;;;2.40;99.90;;;;;;4997562;28;20063;-72
2022/12/08 11:01:48;;;;;;;5.38;2.75;;;2.50;99.90;;;;;;4990248;28;20485;-71
2022/12/08 11:04:16;;;;;;;17.45;10.57;;;2.90;99.90;;;;;;5000607;28;20041;-70
2022/12/08 11:06:42;;;;;;;8.85;4.85;;;2.90;99.90;;;;;;5007141;28;20153;-71
2022/12/08 11:09:14;;;;;;;5.70;3.55;;;3.00;99.90;;;;;;5002422;28;20847;-72
2022/12/08 11:11:44;;;;;;;5.05;2.65;;;2.80;99.90;;;;;;5003178;28;20041;-70
2022/12/08 11:14:21;;;;;;;7.60;2.83;;;2.60;99.90;;;;;;5004122;28;20069;-71
2022/12/08 11:16:49;;;;;;;5.78;2.45;;;2.60;99.90;;;;;;5001480;28;20037;-71
2022/12/08 11:19:17;;;;;;;6.88;2.95;;;2.70;99.90;;;;;;5001952;28;20037;-72
2022/12/08 11:21:43;;;;;;;5.95;3.03;;;2.70;99.90;;;;;;5005387;28;20034;-72
2022/12/08 11:24:23;;;;;;;6.43;2.90;;;2.90;99.90;;;;;;5005283;28;20050;-71
2022/12/08 11:26:59;;;;;;;7.35;3.00;;;2.90;99.90;;;;;;5000589;28;20388;-71
2022/12/08 11:29:26;;;;;;;5.70;2.75;;;3.00;99.90;;;;;;4998558;28;20049;-71
2022/12/08 11:32:18;;;;;;;7.18;2.47;;;3.10;99.90;;;;;;5006112;28;20026;-71
2022/12/08 11:34:49;;;;;;;5.68;2.35;;;3.20;99.90;;;;;;5005332;28;20092;-71
2022/12/08 11:37:38;;;;;;;5.28;2.85;;;3.40;99.90;;;;;;5007299;28;20065;-72
2022/12/08 11:40:10;;;;;;;6.25;2.65;;;3.40;99.90;;;;;;5001709;28;20034;-68
2022/12/08 11:43:03;;;;;;;7.05;2.60;;;3.40;99.90;;;;;;5002517;28;20061;-71
2022/12/08 11:45:33;;;;;;;5.90;2.45;;;3.50;99.90;;;;;;5004619;28;20052;-71
2022/12/08 11:48:26;;;;;;;5.22;2.85;;;3.60;99.90;;;;;;5000517;28;20037;-71
2022/12/08 11:51:15;;;;;;;11.95;7.50;;;3.70;99.90;;;;;;4994702;28;20117;-70
2022/12/08 11:54:20;;;;;;;6.28;3.85;;;3.90;99.90;;;;;;5002384;28;20052;-71
2022/12/08 11:56:55;;;;;;;8.07;4.10;;;4.30;99.90;;;;;;5002263;28;20046;-71
2022/12/08 11:59:57;;;;;;;6.18;3.40;;;4.20;99.90;;;;;;5003080;28;20117;-71
2022/12/08 12:02:28;;;;;;;6.97;2.97;;;4.20;99.90;;;;;;5019613;28;20045;-71
2022/12/08 12:05:14;;;;;;;5.72;3.13;;;4.10;99.90;;;;;;5008065;28;20668;-71
2022/12/08 12:07:40;;;;;;;6.85;2.78;;;4.00;99.90;;;;;;5000862;28;20079;-71
2022/12/08 12:10:27;;;;;;;5.22;2.40;;;4.00;99.90;;;;;;5003886;28;20530;-71
2022/12/08 12:13:33;;;;;;;5.75;2.80;;;4.10;99.90;;;;;;5006691;28;20042;-71
2022/12/08 12:16:19;;;;;;;6.30;2.88;;;4.20;99.90;;;;;;4940240;28;20094;-71
2022/12/08 12:19:04;;;;;;;5.80;2.75;;;4.30;99.90;;;;;;4996066;28;20088;-71
2022/12/08 12:21:38;;;;;;;5.07;2.67;;;4.30;99.90;;;;;;5002105;28;20627;-71
2022/12/08 12:24:08;;;;;;;5.20;2.75;;;4.30;99.90;;;;;;4996969;28;20125;-72
2022/12/08 12:26:38;;;;;;;6.10;2.85;;;4.50;99.90;;;;;;4998150;28;20026;-72
2022/12/08 12:29:17;;;;;;;7.57;3.30;;;4.50;99.90;;;;;;5002498;28;20068;-71
2022/12/08 12:31:53;;;;;;;6.10;2.97;;;4.40;99.90;;;;;;5001617;28;20045;-71
2022/12/08 12:34:24;;;;;;;5.70;2.30;;;4.30;99.90;;;;;;5000530;28;20508;-72
2022/12/08 12:36:54;;;;;;;5.38;2.95;;;4.30;99.90;;;;;;4999300;28;20025;-72
2022/12/08 12:39:23;;;;;;;5.43;2.70;;;4.40;99.90;;;;;;4994809;28;20030;-73
2022/12/08 12:41:59;;;;;;;6.85;3.03;;;4.50;99.90;;;;;;4996188;28;20054;-72
2022/12/08 12:44:38;;;;;;;6.22;2.85;;;4.60;99.90;;;;;;4997578;28;20160;-72
2022/12/08 12:47:09;;;;;;;6.03;2.60;;;4.50;99.90;;;;;;4994299;28;20041;-73
2022/12/08 12:49:38;;;;;;;6.38;3.17;;;4.50;99.90;;;;;;4998505;28;20091;-72
2022/12/08 12:52:30;;;;;;;5.78;3.00;;;4.70;99.90;;;;;;4991371;28;20034;-72
2022/12/08 12:54:57;;;;;;;5.30;2.38;;;4.60;99.90;;;;;;4989690;28;20044;-75
2022/12/08 12:57:33;;;;;;;6.13;2.88;;;4.60;99.90;;;;;;4997523;28;20437;-75
2022/12/08 12:59:59;;;;;;;26.60;15.10;;;4.60;99.90;;;;;;4991845;28;20032;-74
2022/12/08 13:02:32;;;;;;;17.10;7.97;;;4.60;99.90;;;;;;4993915;28;20022;-74
2022/12/08 13:05:25;;;;;;;8.45;4.30;;;4.80;99.90;;;;;;4995416;28;20090;-73
2022/12/08 13:08:01;;;;;;;8.00;4.57;;;4.70;99.90;;;;;;4994170;28;20077;-73
2022/12/08 13:10:39;;;;;;;4.38;2.47;;;4.70;99.90;;;;;;4993722;28;20026;-74
2022/12/08 13:13:11;;;;;;;6.07;3.08;;;4.70;99.90;;;;;;4995393;28;20424;-73
2022/12/08 13:15:51;;;;;;;5.40;2.33;;;4.60;99.80;;;;;;4994947;28;20034;-73
2022/12/08 13:18:20;;;;;;;4.78;2.42;;;4.60;99.60;;;;;;4996779;28;20033;-74